Aérodrome :
LOGIN :

S'inscrire | Disclaimer

   EN    FR    IT 

 










Légende :    VFR   VFR Marginal   IFR   IFR Intensif   IFR Très Intensif
Visi : 
Plafond : 
>= 8 km
>= 3000ft
5 à 8 km
1000 à 3000 ft
1500m à 5 km
500 à 1000 ft
800 à 1500m
200 à 500 ft
< 800m
< 200 ft
Symboles :   Orages  Brouillard  Fortes neiges  Fortes précipitations  Vent > 20 kt
SIGMETs :   Divers  Orages  Givrage  Turbulence  Onde Orograph.  Cendres Volcan.







- Altitude de l'aérodrome : 42 ft
- Code IATA : CAL
- Voir les cartes d'approche


EGEC - Campbeltown

DERNIER METAR :
  • 241150Z 10005KT 9999 FEW012 BKN026 17/14 Q1017

METARs EXPIRÉS :
  • 241120Z 08007KT 9999 FEW012 SCT019 BKN024 17/14 Q1017
  • 241050Z 08008KT 9999 FEW012 SCT019 BKN024 16/13 Q1017
  • 241020Z 07008KT 9999 FEW014 BKN024 16/13 Q1017
  • 240950Z 05008KT 9999 FEW010 SCT027 BKN039 16/13 Q1017
  • 240920Z 08011KT 9999 FEW010 SCT027 BKN044 15/13 Q1017

TAF TAF EGEC
Valide du 24 à 12h jusqu'au 24 à 17h UTC


241105Z 2412/2417 07009KT 9999 SCT025
PROB30
TEMPO 2412/2414 3000 +SHRA TSRA BKN012 BKN048CB
PROB30
TEMPO 2414/2417 BKN012
Pas de NOTAMs connus pour ce terrain.
2 SIGMETs publiés pour la FIR Scottish (EGPX) :
 
Orages noyés dans la masse avec grêle
EGPX SIGMET 04 VALID 241115/241400 EGRR
EGPX SCOTTISH FIR EMBD TSGR FCST WI N5500 W00530 - N5437 W00530 - N5437 W00545 - N5544 W00534 - N5541 W00354 - N5500 W00400 - N5500 W00530 TOP FL280 MOV NNE 20KT NC=
Orages noyés dans la masse
EGPX SIGMET 03 VALID 241030/241400 EGRR
EGPX SCOTTISH FIR EMBD TS FCST WI N5637 W00321 - N5640 E00200 - N5503 E00056 - N5502 W00334 - N5637 W00321 TOP FL300 MOV NNE 20KT NC=



MET'MAP, la Météo Aéronautique d'un coup d'oeil ! - Copyright ORBIFLY Décembre 2007 - Disclaimer

ORBIFLY MET'MAP TEAM :

Programmation & Développement : Alexandra Zaïnal
Conception & Développement : Baudouin d'Aumeries
Co-Programmation & Développement : Marc-Olivier Méhu
Soutien technique & logistique : Manuel Goepfert

Contact : metmap@orbifly.com




SOURCES & CREDITS :

   NOAA